createdAt,value
2018-04-19T00:00:53.270Z,19.20
2018-04-19T00:03:21.173Z,21.30
2018-04-19T00:05:49.071Z,22.07
2018-04-19T00:08:17.157Z,18.13
2018-04-19T00:10:45.098Z,23.17
2018-04-19T00:13:13.013Z,35.77
2018-04-19T00:15:40.938Z,23.80
2018-04-19T00:18:08.874Z,18.63
2018-04-19T00:20:36.761Z,24.50
2018-04-19T00:23:04.696Z,24.33
2018-04-19T00:25:32.609Z,28.53
2018-04-19T00:28:00.522Z,21.10
2018-04-19T00:30:28.426Z,23.00
2018-04-19T00:32:56.370Z,22.10
2018-04-19T00:35:24.290Z,21.30
2018-04-19T00:37:52.259Z,18.30
2018-04-19T00:40:20.170Z,29.60
2018-04-19T00:42:48.090Z,25.40
2018-04-19T00:45:16.053Z,26.53
2018-04-19T00:47:43.949Z,19.03
2018-04-19T00:50:11.842Z,22.73
2018-04-19T00:52:45.801Z,24.43
2018-04-19T00:55:13.702Z,21.93
2018-04-19T00:57:41.590Z,16.30
2018-04-19T01:00:09.478Z,16.77
2018-04-19T01:02:37.378Z,23.60
2018-04-19T01:05:05.265Z,23.00
2018-04-19T01:07:33.196Z,17.40
2018-04-19T01:10:01.358Z,18.80
2018-04-19T01:12:29.297Z,18.37
2018-04-19T01:14:57.222Z,19.40
2018-04-19T01:17:25.133Z,25.93
2018-04-19T01:19:53.074Z,18.70
2018-04-19T01:22:20.982Z,24.13
2018-04-19T01:24:48.894Z,30.93
2018-04-19T01:27:16.793Z,25.87
2018-04-19T01:29:44.686Z,30.83
2018-04-19T01:32:12.602Z,20.73
2018-04-19T01:34:40.529Z,26.20
2018-04-19T01:37:08.498Z,22.23
2018-04-19T01:39:37.176Z,17.87
2018-04-19T01:42:05.097Z,22.47
2018-04-19T01:44:32.993Z,21.83
2018-04-19T01:47:00.926Z,26.37
2018-04-19T01:49:28.813Z,17.47
2018-04-19T01:51:56.736Z,29.17
2018-04-19T01:54:24.649Z,30.73
2018-04-19T01:56:52.533Z,30.50
2018-04-19T01:59:20.426Z,18.20
2018-04-19T02:01:48.370Z,36.63
2018-04-19T02:04:16.267Z,22.10
2018-04-19T02:06:44.205Z,28.83
2018-04-19T02:09:12.154Z,26.67
2018-04-19T02:11:40.265Z,32.20
2018-04-19T02:14:08.170Z,20.30
2018-04-19T02:16:36.086Z,21.17
2018-04-19T02:19:03.997Z,26.00
2018-04-19T02:21:31.915Z,23.73
2018-04-19T02:23:59.815Z,22.30
2018-04-19T02:26:27.725Z,27.90
2018-04-19T02:28:55.642Z,33.07
2018-04-19T02:31:23.541Z,30.50
2018-04-19T02:33:51.436Z,27.30
2018-04-19T02:36:19.365Z,34.03
2018-04-19T02:38:47.295Z,41.67
2018-04-19T02:41:15.199Z,23.87
2018-04-19T02:43:43.111Z,24.47
2018-04-19T02:46:11.002Z,18.87
2018-04-19T02:48:38.906Z,22.20
2018-04-19T02:51:06.839Z,33.53
2018-04-19T02:53:34.738Z,30.03
2018-04-19T02:56:02.658Z,25.80
2018-04-19T02:58:30.580Z,25.80
2018-04-19T03:00:58.483Z,19.60
2018-04-19T03:03:26.407Z,39.03
2018-04-19T03:05:54.327Z,23.77
2018-04-19T03:08:22.229Z,23.10
2018-04-19T03:10:50.359Z,32.57
2018-04-19T03:13:18.502Z,29.37
2018-04-19T03:15:46.390Z,28.73
2018-04-19T03:18:14.306Z,23.43
2018-04-19T03:20:42.216Z,24.87
2018-04-19T03:23:10.109Z,26.70
2018-04-19T03:25:38.065Z,28.20
2018-04-19T03:28:06.002Z,28.13
2018-04-19T03:30:33.916Z,37.07
2018-04-19T03:33:01.853Z,22.50
2018-04-19T03:35:29.782Z,22.63
2018-04-19T03:37:57.689Z,33.63
2018-04-19T03:40:25.590Z,32.70
2018-04-19T03:42:53.494Z,26.30
2018-04-19T03:45:21.410Z,30.53
2018-04-19T03:47:49.346Z,24.73
2018-04-19T03:50:17.253Z,26.40
2018-04-19T03:52:45.168Z,25.90
2018-04-19T03:55:13.059Z,40.97
2018-04-19T03:57:40.978Z,24.77
2018-04-19T04:00:08.889Z,29.83
2018-04-19T04:02:36.822Z,25.37
2018-04-19T04:05:04.744Z,25.87
2018-04-19T04:07:32.621Z,24.10
2018-04-19T04:10:00.545Z,25.70
2018-04-19T04:12:28.470Z,21.17
2018-04-19T04:14:56.618Z,30.60
2018-04-19T04:20:28.521Z,31.37
2018-04-19T04:23:02.618Z,30.87
2018-04-19T04:25:30.522Z,36.43
2018-04-19T04:27:58.474Z,31.00
2018-04-19T04:30:26.535Z,25.43
2018-04-19T04:32:54.445Z,29.60
2018-04-19T04:35:22.452Z,28.87
2018-04-19T04:37:50.289Z,29.50
2018-04-19T04:40:18.200Z,33.97
2018-04-19T04:42:46.097Z,29.27
2018-04-19T04:45:14.030Z,26.43
2018-04-19T04:47:42.005Z,27.53
2018-04-19T04:50:09.922Z,21.00
2018-04-19T04:52:37.830Z,35.53
2018-04-19T04:55:05.713Z,29.20
2018-04-19T04:57:33.634Z,25.67
2018-04-19T05:00:01.573Z,23.40
2018-04-19T05:02:29.469Z,24.00
2018-04-19T05:04:57.397Z,30.97
2018-04-19T05:07:25.426Z,30.93
2018-04-19T05:09:53.318Z,23.17
2018-04-19T05:12:21.221Z,33.50
2018-04-19T05:14:49.122Z,22.53
2018-04-19T05:17:17.256Z,26.03
2018-04-19T05:19:52.134Z,23.03
2018-04-19T05:22:20.049Z,23.70
2018-04-19T05:24:47.950Z,24.07
2018-04-19T05:27:15.857Z,23.67
2018-04-19T05:29:43.771Z,24.37
2018-04-19T05:32:11.681Z,16.50
2018-04-19T05:34:39.573Z,26.60
2018-04-19T05:37:07.993Z,28.87
2018-04-19T05:39:35.882Z,28.67
2018-04-19T05:42:03.785Z,19.20
2018-04-19T05:44:31.678Z,22.10
2018-04-19T05:46:59.586Z,27.00
2018-04-19T05:49:27.522Z,18.77
2018-04-19T05:51:55.409Z,25.57
2018-04-19T05:54:23.376Z,23.20
2018-04-19T05:56:51.269Z,31.43
2018-04-19T05:59:19.221Z,19.67
2018-04-19T06:01:47.133Z,19.10
2018-04-19T06:04:15.018Z,22.67
2018-04-19T06:06:42.982Z,31.87
2018-04-19T06:09:10.863Z,22.43
2018-04-19T06:11:38.757Z,23.23
2018-04-19T06:14:06.650Z,33.27
2018-04-19T06:16:34.598Z,31.43
2018-04-19T06:19:02.734Z,20.37
2018-04-19T06:21:30.629Z,26.40
2018-04-19T06:23:58.557Z,26.37
2018-04-19T06:26:26.463Z,21.80
2018-04-19T06:28:54.418Z,19.60
2018-04-19T06:31:22.654Z,28.57
2018-04-19T06:33:50.609Z,19.57
2018-04-19T06:36:18.513Z,21.70
2018-04-19T06:38:46.418Z,20.17
2018-04-19T06:41:14.353Z,20.97
2018-04-19T06:43:42.258Z,25.47
2018-04-19T06:46:10.173Z,27.27
2018-04-19T06:48:38.111Z,20.83
2018-04-19T06:51:06.009Z,19.30
2018-04-19T06:53:33.906Z,20.20
2018-04-19T06:56:01.833Z,22.47
2018-04-19T06:58:29.769Z,22.73
2018-04-19T07:00:57.686Z,23.80
2018-04-19T07:03:25.621Z,22.90
2018-04-19T07:05:53.526Z,19.80
2018-04-19T07:08:21.426Z,22.23
2018-04-19T07:10:49.366Z,28.43
2018-04-19T07:13:17.265Z,29.67
2018-04-19T07:15:45.178Z,26.57
2018-04-19T07:18:13.074Z,25.13
2018-04-19T07:20:41.169Z,19.83
2018-04-19T07:23:09.058Z,19.63
2018-04-19T07:25:36.966Z,19.50
2018-04-19T07:28:04.885Z,27.73
2018-04-19T07:30:32.786Z,21.00
2018-04-19T07:33:00.697Z,24.60
2018-04-19T07:35:28.622Z,26.23
2018-04-19T07:37:56.567Z,22.33
2018-04-19T07:40:24.546Z,21.80
2018-04-19T07:42:52.463Z,19.20
2018-04-19T07:45:20.366Z,25.77
2018-04-19T07:47:48.281Z,22.50
2018-04-19T07:50:16.214Z,21.13
2018-04-19T07:52:44.114Z,20.10
2018-04-19T07:55:12.014Z,25.57
2018-04-19T07:57:39.997Z,23.70
2018-04-19T08:00:07.894Z,30.20
2018-04-19T08:02:35.789Z,28.10
2018-04-19T08:05:03.682Z,21.90
2018-04-19T08:07:31.594Z,19.37
2018-04-19T08:09:59.513Z,18.77
2018-04-19T08:12:27.414Z,27.53
2018-04-19T08:14:55.339Z,25.97
2018-04-19T08:17:23.258Z,20.03
2018-04-19T08:19:51.146Z,20.90
2018-04-19T08:22:19.291Z,22.10
2018-04-19T08:24:47.217Z,21.93
2018-04-19T08:27:15.121Z,27.00
2018-04-19T08:29:43.042Z,29.20
2018-04-19T08:32:10.977Z,62.30
2018-04-19T08:34:39.496Z,29.43
2018-04-19T08:37:07.413Z,26.20
2018-04-19T08:39:35.306Z,27.40
2018-04-19T08:42:03.198Z,32.37
2018-04-19T08:44:31.100Z,37.30
2018-04-19T08:46:58.984Z,27.60
2018-04-19T08:49:26.886Z,31.63
2018-04-19T08:51:54.793Z,26.47
2018-04-19T08:54:22.682Z,32.63
2018-04-19T08:56:50.571Z,29.47
2018-04-19T08:59:18.475Z,26.13
2018-04-19T09:01:46.349Z,29.97
2018-04-19T09:04:14.249Z,30.57
2018-04-19T09:06:42.137Z,20.33
2018-04-19T09:09:10.022Z,27.80
2018-04-19T09:11:37.917Z,25.73
2018-04-19T09:14:05.824Z,24.97
2018-04-19T09:16:33.746Z,19.33
2018-04-19T09:19:01.642Z,30.67
2018-04-19T09:21:29.548Z,26.17
2018-04-19T09:23:57.706Z,32.83
2018-04-19T09:26:25.608Z,30.93
2018-04-19T09:28:53.554Z,22.53
2018-04-19T09:31:21.463Z,31.30
2018-04-19T09:33:49.375Z,34.17
2018-04-19T09:36:17.422Z,31.60
2018-04-19T09:38:45.322Z,30.20
2018-04-19T09:41:13.247Z,31.90
2018-04-19T09:43:41.169Z,29.70
2018-04-19T09:46:09.071Z,29.67
2018-04-19T09:48:36.976Z,30.10
2018-04-19T09:51:04.881Z,29.07
2018-04-19T09:53:32.789Z,27.57
2018-04-19T09:56:00.718Z,34.57
2018-04-19T09:58:35.784Z,31.50
2018-04-19T10:01:08.437Z,31.83
2018-04-19T10:03:42.418Z,28.67
2018-04-19T10:06:10.310Z,29.30
2018-04-19T10:08:38.206Z,30.57
2018-04-19T10:11:06.094Z,31.50
2018-04-19T10:13:33.998Z,43.03
2018-04-19T10:16:01.932Z,32.20
2018-04-19T10:18:29.829Z,36.27
2018-04-19T10:20:57.723Z,29.50
2018-04-19T10:23:25.626Z,38.50
2018-04-19T10:25:53.678Z,35.70
2018-04-19T10:28:21.608Z,37.40
2018-04-19T10:30:49.529Z,31.10
2018-04-19T10:33:17.418Z,37.73
2018-04-19T10:35:45.320Z,30.30
2018-04-19T10:38:13.570Z,37.40
2018-04-19T10:40:41.477Z,34.77
2018-04-19T10:43:09.421Z,29.60
2018-04-19T10:45:37.289Z,28.63
2018-04-19T10:48:05.194Z,27.67
2018-04-19T10:50:33.121Z,30.93
2018-04-19T10:53:01.013Z,27.17
2018-04-19T10:55:28.911Z,37.30
2018-04-19T10:57:56.817Z,29.97
2018-04-19T11:00:24.698Z,29.63
2018-04-19T11:02:52.649Z,24.93
2018-04-19T11:05:20.545Z,25.27
2018-04-19T11:07:48.486Z,25.60
2018-04-19T11:10:16.457Z,26.43
2018-04-19T11:12:44.310Z,35.50
2018-04-19T11:15:12.211Z,25.30
2018-04-19T11:17:40.129Z,25.93
2018-04-19T11:20:08.047Z,31.17
2018-04-19T11:22:36.031Z,24.73
2018-04-19T11:25:04.020Z,29.43
2018-04-19T11:27:32.094Z,31.67
2018-04-19T11:30:00.087Z,31.93
2018-04-19T11:32:28.026Z,22.63
2018-04-19T11:34:55.937Z,26.67
2018-04-19T11:37:23.893Z,21.60
2018-04-19T11:39:51.849Z,27.87
2018-04-19T11:42:19.805Z,25.23
2018-04-19T11:44:47.699Z,24.10
2018-04-19T11:47:15.867Z,22.50
2018-04-19T11:49:43.871Z,22.93
2018-04-19T11:52:11.766Z,21.20
2018-04-19T11:54:39.670Z,22.43
2018-04-19T11:57:07.647Z,27.80
2018-04-19T11:59:35.668Z,20.70
2018-04-19T12:02:03.593Z,26.00
2018-04-19T12:04:31.517Z,23.37
2018-04-19T12:06:59.474Z,30.10
2018-04-19T12:09:27.421Z,22.77
2018-04-19T12:11:55.401Z,19.67
2018-04-19T12:14:23.353Z,20.27
2018-04-19T12:16:51.290Z,20.80
2018-04-19T12:19:19.209Z,17.00
2018-04-19T12:21:47.097Z,21.57
2018-04-19T12:24:15.044Z,14.77
2018-04-19T12:26:43.083Z,13.10
2018-04-19T12:29:11.341Z,16.20
2018-04-19T12:31:39.241Z,19.57
2018-04-19T12:34:07.214Z,16.00
2018-04-19T12:36:35.222Z,20.10
2018-04-19T12:39:03.186Z,16.40
2018-04-19T12:41:31.151Z,20.03
2018-04-19T12:43:59.083Z,14.53
2018-04-19T12:46:27.016Z,15.90
2018-04-19T12:48:54.913Z,22.20
2018-04-19T12:51:22.877Z,16.80
2018-04-19T12:53:50.787Z,13.50
2018-04-19T12:56:18.718Z,16.43
2018-04-19T12:58:46.627Z,14.23
2018-04-19T13:01:14.530Z,14.07
2018-04-19T13:03:42.483Z,18.53
2018-04-19T13:06:10.412Z,18.03
2018-04-19T13:08:38.346Z,14.30
2018-04-19T13:11:06.238Z,13.30
2018-04-19T13:13:34.181Z,15.83
2018-04-19T13:16:02.107Z,13.70
2018-04-19T13:18:30.041Z,18.13
2018-04-19T13:20:58.048Z,14.93
2018-04-19T13:23:25.975Z,16.77
2018-04-19T13:25:53.911Z,26.47
2018-04-19T13:28:21.799Z,11.97
2018-04-19T13:30:49.877Z,34.43
2018-04-19T13:33:17.787Z,14.07
2018-04-19T13:35:45.685Z,16.87
2018-04-19T13:38:13.605Z,23.80
2018-04-19T13:40:41.518Z,17.53
2018-04-19T13:43:09.730Z,16.30
2018-04-19T13:45:37.671Z,13.80
2018-04-19T13:48:05.586Z,13.67
2018-04-19T13:50:33.518Z,14.60
2018-04-19T13:53:01.486Z,16.23
2018-04-19T13:55:29.498Z,14.90
2018-04-19T13:57:57.442Z,15.07
2018-04-19T14:00:25.339Z,14.93
2018-04-19T14:02:53.304Z,16.77
2018-04-19T14:05:21.273Z,19.83
2018-04-19T14:07:49.221Z,15.03
2018-04-19T14:10:17.150Z,14.33
2018-04-19T14:12:45.084Z,17.03
2018-04-19T14:15:13.043Z,14.67
2018-04-19T14:17:41.027Z,12.83
2018-04-19T14:20:08.927Z,11.40
2018-04-19T14:22:36.865Z,14.30
2018-04-19T14:25:04.818Z,13.83
2018-04-19T14:27:33.469Z,15.57
2018-04-19T14:30:01.376Z,14.80
2018-04-19T14:32:29.518Z,16.47
2018-04-19T14:34:57.430Z,9.97
2018-04-19T14:37:25.330Z,13.37
2018-04-19T14:39:53.226Z,16.67
2018-04-19T14:42:21.150Z,14.50
2018-04-19T14:44:49.298Z,9.27
2018-04-19T14:47:17.246Z,16.37
2018-04-19T14:49:45.266Z,14.73
2018-04-19T14:52:13.201Z,10.63
2018-04-19T14:54:41.137Z,8.20
2018-04-19T14:57:09.042Z,11.90
2018-04-19T14:59:36.982Z,12.10
2018-04-19T15:02:05.097Z,10.70
2018-04-19T15:04:33.014Z,17.33
2018-04-19T15:07:00.996Z,11.17
2018-04-19T15:09:28.941Z,14.50
2018-04-19T15:11:56.866Z,10.00
2018-04-19T15:14:24.807Z,10.03
2018-04-19T15:16:52.753Z,10.97
2018-04-19T15:19:20.665Z,10.63
2018-04-19T15:21:48.569Z,11.83
2018-04-19T15:24:16.498Z,13.77
2018-04-19T15:26:44.442Z,9.20
2018-04-19T15:29:12.369Z,14.47
2018-04-19T15:31:40.348Z,11.70
2018-04-19T15:34:08.502Z,12.43
2018-04-19T15:36:36.420Z,14.90
2018-04-19T15:39:05.307Z,16.33
2018-04-19T15:41:33.249Z,12.07
2018-04-19T15:44:01.184Z,8.30
2018-04-19T15:46:29.314Z,8.27
2018-04-19T15:48:57.609Z,14.83
2018-04-19T15:51:25.607Z,8.13
2018-04-19T15:53:54.371Z,10.53
2018-04-19T15:56:22.306Z,8.60
2018-04-19T15:58:50.281Z,10.77
2018-04-19T16:01:18.274Z,8.40
2018-04-19T16:03:46.186Z,16.67
2018-04-19T16:06:14.134Z,9.20
2018-04-19T16:08:42.057Z,9.80
2018-04-19T16:11:09.975Z,7.57
2018-04-19T16:13:37.893Z,5.37
2018-04-19T16:16:05.857Z,12.00
2018-04-19T16:18:33.777Z,10.13
2018-04-19T16:21:01.720Z,9.43
2018-04-19T16:23:29.643Z,11.93
2018-04-19T16:25:57.561Z,18.43
2018-04-19T16:28:25.511Z,9.03
2018-04-19T16:30:53.462Z,10.77
2018-04-19T16:33:21.378Z,8.97
2018-04-19T16:35:49.808Z,10.13
2018-04-19T16:38:17.701Z,10.00
2018-04-19T16:40:45.626Z,6.73
2018-04-19T16:43:13.533Z,8.73
2018-04-19T16:45:41.451Z,10.83
2018-04-19T16:48:09.430Z,8.23
2018-04-19T16:50:37.321Z,6.77
2018-04-19T16:53:05.475Z,6.63
2018-04-19T16:55:33.376Z,9.00
2018-04-19T16:58:01.289Z,8.70
2018-04-19T17:00:29.195Z,11.03
2018-04-19T17:02:57.098Z,10.43
2018-04-19T17:05:24.986Z,11.13
2018-04-19T17:07:52.886Z,8.43
2018-04-19T17:10:20.827Z,6.60
2018-04-19T17:12:48.768Z,9.13
2018-04-19T17:15:16.721Z,11.17
2018-04-19T17:17:44.609Z,9.87
2018-04-19T17:20:12.578Z,15.97
2018-04-19T17:22:40.493Z,10.63
2018-04-19T17:25:08.433Z,11.67
2018-04-19T17:27:36.410Z,8.67
2018-04-19T17:30:04.320Z,7.37
2018-04-19T17:32:32.282Z,5.83
2018-04-19T17:35:00.208Z,7.20
2018-04-19T17:37:28.584Z,12.77
2018-04-19T17:39:56.527Z,10.03
2018-04-19T17:42:24.437Z,8.90
2018-04-19T17:44:52.390Z,8.73
2018-04-19T17:47:20.286Z,11.13
2018-04-19T17:49:48.277Z,9.17
2018-04-19T17:52:16.215Z,11.07
2018-04-19T17:54:44.174Z,9.83
2018-04-19T17:57:12.089Z,9.77
2018-04-19T17:59:40.002Z,7.53
2018-04-19T18:02:07.898Z,6.10
2018-04-19T18:04:35.839Z,9.60
2018-04-19T18:07:03.797Z,5.90
2018-04-19T18:09:31.701Z,4.67
2018-04-19T18:11:59.611Z,6.40
2018-04-19T18:14:27.542Z,11.13
2018-04-19T18:16:55.473Z,7.80
2018-04-19T18:19:23.338Z,5.33
2018-04-19T18:21:51.225Z,6.70
2018-04-19T18:24:19.122Z,6.53
2018-04-19T18:26:47.036Z,14.13
2018-04-19T18:29:14.941Z,9.97
2018-04-19T18:31:42.881Z,10.50
2018-04-19T18:34:10.846Z,23.43
2018-04-19T18:36:38.798Z,16.33
2018-04-19T18:39:06.702Z,15.83
2018-04-19T18:41:34.826Z,11.13
2018-04-19T18:44:02.758Z,12.40
2018-04-19T18:46:30.646Z,12.63
2018-04-19T18:48:58.649Z,15.23
2018-04-19T18:51:26.609Z,11.27
2018-04-19T18:53:54.614Z,13.13
2018-04-19T18:56:22.536Z,11.73
2018-04-19T18:58:50.455Z,9.77
2018-04-19T19:01:18.390Z,14.63
2018-04-19T19:03:46.320Z,10.50
2018-04-19T19:06:14.253Z,10.27
2018-04-19T19:08:42.185Z,7.60
2018-04-19T19:11:10.141Z,11.80
2018-04-19T19:13:38.065Z,8.07
2018-04-19T19:16:06.833Z,9.37
2018-04-19T19:18:40.825Z,8.73
2018-04-19T19:21:08.782Z,11.53
2018-04-19T19:23:36.709Z,13.80
2018-04-19T19:26:04.615Z,7.23
2018-04-19T19:28:32.514Z,7.20
2018-04-19T19:31:00.461Z,9.47
2018-04-19T19:33:28.440Z,12.30
2018-04-19T19:35:56.370Z,7.30
2018-04-19T19:38:24.333Z,13.73
2018-04-19T19:40:52.505Z,11.23
2018-04-19T19:43:20.444Z,14.27
2018-04-19T19:45:48.374Z,15.43
2018-04-19T19:48:16.301Z,16.67
2018-04-19T19:50:44.233Z,11.03
2018-04-19T19:53:12.200Z,26.03
2018-04-19T19:55:40.121Z,9.50
2018-04-19T19:58:08.070Z,20.33
2018-04-19T20:00:36.022Z,8.00
2018-04-19T20:03:03.913Z,14.37
2018-04-19T20:05:31.833Z,9.90
2018-04-19T20:07:59.754Z,12.10
2018-04-19T20:10:27.710Z,14.00
2018-04-19T20:12:55.680Z,14.60
2018-04-19T20:15:23.561Z,12.43
2018-04-19T20:17:51.473Z,18.97
2018-04-19T20:20:19.944Z,16.93
2018-04-19T20:22:48.246Z,13.63
2018-04-19T20:25:16.186Z,12.77
2018-04-19T20:27:44.519Z,13.80
2018-04-19T20:30:13.347Z,13.20
2018-04-19T20:32:41.721Z,14.20
2018-04-19T20:35:09.693Z,17.20
2018-04-19T20:37:37.607Z,13.40
2018-04-19T20:40:05.565Z,15.77
2018-04-19T20:42:33.718Z,13.03
2018-04-19T20:45:01.643Z,18.93
2018-04-19T20:47:29.542Z,16.20
2018-04-19T20:49:57.473Z,12.10
2018-04-19T20:52:25.413Z,14.17
2018-04-19T20:54:53.427Z,14.57
2018-04-19T20:57:21.335Z,9.97
2018-04-19T20:59:49.225Z,15.20
2018-04-19T21:02:17.129Z,10.20
2018-04-19T21:04:45.103Z,18.33
2018-04-19T21:07:13.050Z,12.47
2018-04-19T21:09:40.975Z,18.60
2018-04-19T21:12:08.910Z,13.93
2018-04-19T21:14:36.841Z,19.83
2018-04-19T21:17:04.794Z,15.53
2018-04-19T21:19:32.716Z,12.80
2018-04-19T21:22:00.662Z,17.80
2018-04-19T21:24:28.606Z,11.97
2018-04-19T21:26:56.550Z,16.63
2018-04-19T21:29:24.494Z,23.63
2018-04-19T21:31:52.441Z,15.83
2018-04-19T21:34:20.358Z,14.43
2018-04-19T21:36:48.308Z,18.83
2018-04-19T21:39:16.261Z,13.00
2018-04-19T21:41:44.219Z,11.00
2018-04-19T21:44:12.305Z,11.73
2018-04-19T21:46:40.238Z,12.33
2018-04-19T21:49:08.191Z,17.70
2018-04-19T21:51:36.145Z,12.67
2018-04-19T21:54:04.072Z,10.57
2018-04-19T21:56:32.014Z,13.20
2018-04-19T21:58:59.969Z,10.30
2018-04-19T22:01:27.875Z,16.83
2018-04-19T22:03:55.781Z,15.90
2018-04-19T22:06:23.696Z,18.30
2018-04-19T22:08:51.698Z,17.20
2018-04-19T22:11:19.674Z,11.17
2018-04-19T22:13:47.590Z,18.70
2018-04-19T22:16:15.509Z,14.00
2018-04-19T22:18:43.409Z,20.20
2018-04-19T22:21:11.313Z,12.20
2018-04-19T22:23:39.237Z,12.87
2018-04-19T22:26:07.190Z,14.10
2018-04-19T22:28:35.138Z,14.10
2018-04-19T22:31:03.048Z,10.60
2018-04-19T22:33:30.956Z,13.13
2018-04-19T22:35:58.874Z,15.73
2018-04-19T22:38:26.777Z,12.60
2018-04-19T22:40:54.719Z,16.97
2018-04-19T22:43:22.666Z,14.17
2018-04-19T22:45:50.880Z,13.23
2018-04-19T22:48:18.826Z,17.80
2018-04-19T22:50:46.846Z,12.73
2018-04-19T22:53:14.750Z,9.47
2018-04-19T22:55:43.310Z,10.93
2018-04-19T22:58:11.269Z,12.67
2018-04-19T23:00:39.207Z,12.00
2018-04-19T23:03:07.193Z,19.50
2018-04-19T23:05:35.129Z,11.23
2018-04-19T23:08:03.061Z,17.37
2018-04-19T23:10:30.991Z,18.17
2018-04-19T23:12:58.889Z,13.60
2018-04-19T23:15:26.801Z,20.13
2018-04-19T23:17:54.714Z,20.80
2018-04-19T23:20:22.680Z,15.90
2018-04-19T23:22:50.647Z,14.40
2018-04-19T23:25:18.573Z,13.93
2018-04-19T23:27:46.514Z,17.13
2018-04-19T23:30:14.434Z,13.13
2018-04-19T23:32:42.409Z,15.00
2018-04-19T23:35:10.305Z,13.47
2018-04-19T23:37:38.266Z,15.27
2018-04-19T23:40:06.199Z,13.63
2018-04-19T23:42:34.117Z,15.57
2018-04-19T23:45:02.036Z,15.20
2018-04-19T23:47:30.190Z,14.47
2018-04-19T23:49:58.086Z,13.03
2018-04-19T23:52:26.017Z,14.83
2018-04-19T23:54:53.926Z,15.33
2018-04-19T23:57:21.870Z,17.00
2018-04-19T23:59:49.807Z,11.47
